Time;durP1;ratioP1;P1;durP2;ratioP2;P2;SDS_P1;SDS_P2;PMS_P1;PMS_P2;Temp;Humidity;BMP_temperature;BMP_pressure;BME280_temperature;BME280_humidity;BME280_pressure;Samples;Min_cycle;Max_cycle;Signal;HPM_P1;HPM_P2
2021/07/03 00:01:18;;;;;;;14.60;10.47;;;;;;;13.93;90.69;101309.13;4968921;28;20078;-70
2021/07/03 00:03:43;;;;;;;16.50;9.57;;;;;;;13.96;90.66;101306.09;4969737;28;20046;-70
2021/07/03 00:06:09;;;;;;;15.30;10.87;;;;;;;13.96;90.65;101308.75;4968552;28;20050;-70
2021/07/03 00:08:35;;;;;;;12.75;9.25;;;;;;;13.97;90.33;101298.84;4968713;28;20053;-70
2021/07/03 00:11:03;;;;;;;14.05;9.20;;;;;;;14.02;90.17;101309.91;4969609;28;20091;-70
2021/07/03 00:13:28;;;;;;;19.65;9.95;;;;;;;14.02;90.48;101301.88;4969624;28;20034;-70
2021/07/03 00:15:54;;;;;;;15.93;10.27;;;;;;;13.96;90.26;101305.25;4968478;28;20050;-70
2021/07/03 00:18:19;;;;;;;14.23;10.40;;;;;;;13.89;90.81;101300.56;4968647;28;20031;-70
2021/07/03 00:20:45;;;;;;;21.90;12.03;;;;;;;13.86;90.89;101314.31;4969466;28;20455;-70
2021/07/03 00:23:10;;;;;;;20.00;10.57;;;;;;;13.90;91.45;101312.13;4968531;28;20057;-70
2021/07/03 00:25:36;;;;;;;14.70;10.33;;;;;;;13.88;91.11;101304.25;4969511;28;20042;-70
2021/07/03 00:28:02;;;;;;;20.13;11.05;;;;;;;13.88;90.87;101304.25;4968289;28;20511;-70
2021/07/03 00:30:28;;;;;;;13.73;10.05;;;;;;;13.86;90.99;101308.09;4952536;28;20054;-70
2021/07/03 00:32:54;;;;;;;22.90;10.02;;;;;;;13.86;90.72;101311.63;4952412;28;20387;-70
2021/07/03 00:35:20;;;;;;;19.33;10.90;;;;;;;13.74;91.26;101304.91;4968537;28;20479;-70
2021/07/03 00:37:45;;;;;;;17.23;11.07;;;;;;;13.76;91.11;101319.00;4968065;28;20035;-70
2021/07/03 00:40:12;;;;;;;17.27;11.37;;;;;;;13.74;91.34;101307.59;4952377;28;20520;-70
2021/07/03 00:42:37;;;;;;;18.58;9.65;;;;;;;13.84;90.84;101308.28;4968327;28;20577;-70
2021/07/03 00:45:03;;;;;;;17.10;10.80;;;;;;;13.78;90.86;101305.44;4968428;28;20109;-70
2021/07/03 00:47:29;;;;;;;;;;;;;;;13.74;91.23;101310.28;4968367;28;20039;-70
2021/07/03 00:49:55;;;;;;;16.13;10.68;;;;;;;13.66;91.72;101305.78;4969242;28;20377;-70
2021/07/03 00:52:21;;;;;;;20.43;11.37;;;;;;;13.76;91.46;101310.13;4952020;28;20038;-70
2021/07/03 00:54:49;;;;;;;17.67;11.63;;;;;;;13.80;91.16;101311.47;4968174;28;20335;-70
2021/07/03 00:57:19;;;;;;;16.45;10.80;;;;;;;13.87;91.06;101315.97;4952445;28;20143;-70
2021/07/03 00:59:47;;;;;;;16.40;10.10;;;;;;;13.89;91.17;101322.03;4968099;28;20057;-70
2021/07/03 01:02:22;;;;;;;16.55;11.13;;;;;;;13.93;90.17;101309.94;4953331;28;20096;-70
2021/07/03 01:04:48;;;;;;;14.80;10.10;;;;;;;13.87;90.53;101307.09;4969122;28;20475;-70
2021/07/03 01:07:18;;;;;;;18.65;11.95;;;;;;;13.92;90.64;101312.78;4967663;28;20099;-70
2021/07/03 01:09:45;;;;;;;18.15;10.38;;;;;;;13.91;90.90;101305.75;4968103;28;20031;-70
2021/07/03 01:12:13;;;;;;;18.85;11.15;;;;;;;13.91;90.46;101301.22;4952830;28;20130;-70
2021/07/03 01:14:46;;;;;;;21.73;11.43;;;;;;;13.90;90.21;101302.22;4955387;28;20121;-69
2021/07/03 01:17:14;;;;;;;21.60;12.13;;;;;;;13.92;90.51;101302.06;4954980;28;20038;-70
2021/07/03 01:19:42;;;;;;;21.60;10.32;;;;;;;13.98;90.60;101300.53;4972023;28;20091;-70
2021/07/03 01:22:11;;;;;;;17.02;10.77;;;;;;;14.02;90.47;101308.06;4971137;28;20064;-70
2021/07/03 01:24:37;;;;;;;16.95;10.70;;;;;;;14.00;90.53;101303.88;4972051;28;20488;-70
2021/07/03 01:27:05;;;;;;;15.15;11.05;;;;;;;14.02;90.14;101315.28;4970876;28;20117;-70
2021/07/03 01:29:32;;;;;;;17.95;10.57;;;;;;;14.01;90.25;101306.41;4971931;28;20070;-70
2021/07/03 01:31:59;;;;;;;18.88;10.00;;;;;;;14.06;90.17;101314.78;4970894;28;20068;-70
2021/07/03 01:34:28;;;;;;;15.27;10.73;;;;;;;14.06;90.08;101308.56;4970903;28;20031;-70
2021/07/03 01:36:55;;;;;;;15.05;10.80;;;;;;;14.10;89.92;101309.91;4970735;28;20400;-70
2021/07/03 01:39:23;;;;;;;15.82;10.18;;;;;;;14.05;90.23;101307.75;4970852;28;20030;-70
2021/07/03 01:41:49;;;;;;;19.95;10.30;;;;;;;14.13;90.78;101325.66;4971756;28;20043;-70
2021/07/03 01:44:27;;;;;;;16.95;10.52;;;;;;;14.10;90.68;101316.09;4970853;28;20180;-70
2021/07/03 01:46:55;;;;;;;18.90;9.88;;;;;;;14.11;90.40;101323.16;4970594;28;20038;-70
2021/07/03 01:49:21;;;;;;;18.67;10.50;;;;;;;14.15;90.59;101324.47;4971723;28;20050;-70
2021/07/03 01:51:48;;;;;;;;;;;;;;;14.13;90.13;101321.13;4971246;28;20037;-70
2021/07/03 01:54:13;;;;;;;;;;;;;;;14.22;90.00;101313.91;4972112;28;19922;-70
2021/07/03 01:56:44;;;;;;;14.25;10.10;;;;;;;14.16;89.80;101322.63;4970370;28;19909;-70
2021/07/03 01:59:13;;;;;;;21.10;11.48;;;;;;;14.08;90.02;101306.56;4970489;28;20046;-70
2021/07/03 02:01:58;;;;;;;19.20;11.10;;;;;;;14.02;90.40;101312.59;4956807;28;20035;-70
2021/07/03 02:04:26;;;;;;;18.65;10.60;;;;;;;14.15;90.77;101318.28;4970504;28;20515;-70
2021/07/03 02:06:53;;;;;;;;;;;;;;;14.14;89.71;101306.72;4970677;28;20041;-70
2021/07/03 02:09:22;;;;;;;18.13;9.85;;;;;;;14.11;89.83;101295.47;4954797;28;19914;-70
2021/07/03 02:11:51;;;;;;;19.23;11.55;;;;;;;14.09;89.53;101294.78;4970542;28;20114;-70
2021/07/03 02:14:23;;;;;;;18.10;11.02;;;;;;;14.04;90.03;101297.16;4970489;28;20034;-70
2021/07/03 02:17:07;;;;;;;16.65;11.20;;;;;;;14.08;89.77;101290.44;4971157;28;20444;-70
2021/07/03 02:19:34;;;;;;;18.98;10.65;;;;;;;14.09;90.01;101292.09;4970265;28;20099;-70
2021/07/03 02:22:01;;;;;;;17.38;11.50;;;;;;;14.04;89.73;101289.09;4970148;28;20035;-70
2021/07/03 02:24:37;;;;;;;19.85;11.50;;;;;;;14.03;89.58;101287.44;4969720;28;20039;-70
2021/07/03 02:27:03;;;;;;;18.23;10.77;;;;;;;14.09;89.38;101287.59;4969969;28;20049;-70
2021/07/03 02:29:31;;;;;;;19.13;11.25;;;;;;;14.06;89.63;101282.56;4970126;28;20042;-70
2021/07/03 02:31:56;;;;;;;16.02;9.95;;;;;;;14.14;89.47;101287.06;4971060;28;20361;-70
2021/07/03 02:34:23;;;;;;;19.50;10.25;;;;;;;14.13;89.05;101291.59;4969963;28;20030;-70
2021/07/03 02:36:49;;;;;;;;;;;;;;;14.21;89.56;101285.38;4970122;28;20129;-70
2021/07/03 02:39:15;;;;;;;21.63;12.13;;;;;;;14.10;88.96;101270.47;4970074;28;20012;-70
2021/07/03 02:41:47;;;;;;;18.75;11.13;;;;;;;14.09;89.99;101286.75;4954581;28;20484;-70
2021/07/03 02:44:13;;;;;;;17.27;10.55;;;;;;;14.08;90.37;101274.34;4969899;28;20034;-70
2021/07/03 02:46:39;;;;;;;17.17;10.53;;;;;;;14.09;90.40;101265.25;4953741;28;20107;-70
2021/07/03 02:49:05;;;;;;;17.60;10.17;;;;;;;14.18;90.03;101269.59;4969846;28;20431;-70
2021/07/03 02:51:32;;;;;;;18.73;10.95;;;;;;;14.08;89.59;101259.06;4969837;28;20736;-70
2021/07/03 02:53:59;;;;;;;17.85;11.18;;;;;;;14.04;89.60;101273.00;4969882;28;20039;-70
2021/07/03 02:56:24;;;;;;;18.08;11.38;;;;;;;13.86;89.86;101273.19;4969522;28;20027;-70
2021/07/03 02:58:50;;;;;;;28.93;9.93;;;;;;;13.73;89.49;101266.53;4969842;28;20038;-70
2021/07/03 03:01:16;;;;;;;20.27;9.83;;;;;;;13.71;89.80;101273.06;4969602;28;20485;-70
2021/07/03 03:03:43;;;;;;;18.38;10.02;;;;;;;13.76;89.23;101270.72;4969605;28;20285;-71
2021/07/03 03:06:13;;;;;;;17.70;11.65;;;;;;;13.73;90.31;101276.44;4969308;28;20203;-70
2021/07/03 03:08:39;;;;;;;17.10;9.95;;;;;;;13.64;90.28;101272.06;4969623;28;20046;-70
2021/07/03 03:11:07;;;;;;;16.70;9.00;;;;;;;13.62;90.56;101258.81;4969528;28;20667;-70
2021/07/03 03:13:33;;;;;;;15.93;9.90;;;;;;;13.70;90.47;101260.69;4953644;28;20038;-70
2021/07/03 03:16:00;;;;;;;14.98;9.60;;;;;;;13.67;90.31;101253.81;4953169;28;20027;-70
2021/07/03 03:18:25;;;;;;;16.80;10.70;;;;;;;13.62;89.90;101256.13;4953306;28;20043;-70
2021/07/03 03:20:51;;;;;;;15.80;8.80;;;;;;;13.62;90.06;101252.63;4969281;28;20026;-70
2021/07/03 03:23:18;;;;;;;14.43;10.48;;;;;;;13.58;90.58;101259.34;4969411;28;20031;-70
2021/07/03 03:25:44;;;;;;;17.00;10.35;;;;;;;13.59;90.76;101252.97;4970228;28;20040;-70
2021/07/03 03:28:10;;;;;;;14.95;9.70;;;;;;;13.55;91.45;101257.00;4953094;28;20047;-70
2021/07/03 03:30:36;;;;;;;16.88;10.73;;;;;;;13.61;91.17;101261.69;4970124;28;20023;-70
2021/07/03 03:33:06;;;;;;;15.05;9.73;;;;;;;13.50;91.03;101260.19;4969291;28;20109;-70
2021/07/03 03:35:33;;;;;;;18.08;10.40;;;;;;;13.51;91.72;101261.88;4968474;28;20280;-70
2021/07/03 03:38:02;;;;;;;20.10;12.65;;;;;;;13.54;92.12;101260.69;4968620;28;20487;-70
2021/07/03 03:40:31;;;;;;;20.73;10.93;;;;;;;13.58;92.13;101267.38;4969036;28;20041;-70
2021/07/03 03:42:57;;;;;;;20.50;10.63;;;;;;;13.54;92.54;101266.06;4969936;28;20035;-70
2021/07/03 03:45:24;;;;;;;24.75;12.45;;;;;;;13.54;92.49;101266.06;4952976;28;20038;-70
2021/07/03 03:47:52;;;;;;;21.77;12.00;;;;;;;13.67;92.10;101266.38;4953024;28;20121;-70
2021/07/03 03:50:17;;;;;;;14.67;10.40;;;;;;;13.77;92.28;101264.34;4969108;28;20129;-70
2021/07/03 03:52:43;;;;;;;18.93;11.43;;;;;;;13.82;91.73;101266.53;4969889;28;20067;-70
2021/07/03 03:55:09;;;;;;;17.63;10.30;;;;;;;13.78;91.31;101266.00;4969042;28;20516;-70
2021/07/03 03:57:37;;;;;;;23.48;12.10;;;;;;;13.85;91.25;101261.63;4968515;28;20517;-70
2021/07/03 04:00:09;;;;;;;20.33;11.82;;;;;;;13.96;91.00;101265.81;4968822;28;20038;-70
2021/07/03 04:02:41;;;;;;;23.02;10.82;;;;;;;13.98;89.88;101269.16;4969472;28;20122;-70
2021/07/03 04:05:07;;;;;;;25.70;11.60;;;;;;;14.01;89.95;101276.88;4969864;28;20103;-70
2021/07/03 04:07:32;;;;;;;18.23;11.20;;;;;;;14.13;89.45;101272.78;4952510;28;20106;-70
2021/07/03 04:09:58;;;;;;;24.73;13.20;;;;;;;14.09;89.20;101282.22;4968860;28;20069;-70
2021/07/03 04:12:24;;;;;;;19.83;11.60;;;;;;;14.11;89.24;101280.19;4969547;28;20115;-70
2021/07/03 04:14:50;;;;;;;20.85;10.15;;;;;;;14.04;87.90;101278.38;4969623;28;20046;-70
2021/07/03 04:17:16;;;;;;;19.17;9.07;;;;;;;14.10;87.45;101277.69;4969307;28;20031;-70
2021/07/03 04:19:42;;;;;;;13.37;7.77;;;;;;;14.09;86.16;101286.75;4969614;28;20039;-70
2021/07/03 04:22:08;;;;;;;10.95;6.72;;;;;;;14.09;85.29;101278.69;4968495;28;20304;-70
2021/07/03 04:24:34;;;;;;;13.10;7.50;;;;;;;14.15;85.42;101278.00;4968682;28;20117;-70
2021/07/03 04:26:59;;;;;;;13.13;6.80;;;;;;;14.20;85.47;101277.50;4969142;28;20046;-70
2021/07/03 04:29:24;;;;;;;10.20;6.10;;;;;;;14.19;83.84;101283.84;4969515;28;20655;-70
2021/07/03 04:31:50;;;;;;;11.43;6.50;;;;;;;14.27;84.07;101283.84;4969366;28;20045;-70
2021/07/03 04:34:15;;;;;;;16.53;7.23;;;;;;;14.23;84.13;101280.66;4968637;28;20471;-70
2021/07/03 04:36:41;;;;;;;17.00;8.00;;;;;;;14.29;84.77;101282.66;4968198;28;20039;-70
2021/07/03 04:39:06;;;;;;;13.90;7.63;;;;;;;14.47;83.87;101277.03;4969455;28;20531;-70
2021/07/03 04:41:32;;;;;;;16.23;8.27;;;;;;;14.38;84.50;101275.41;4969136;28;20646;-70
2021/07/03 04:43:58;;;;;;;12.30;7.17;;;;;;;14.43;83.83;101281.09;4969226;28;20078;-70
2021/07/03 04:46:23;;;;;;;15.20;8.07;;;;;;;14.40;84.41;101267.16;4968164;28;20038;-71
2021/07/03 04:48:49;;;;;;;13.57;7.97;;;;;;;14.31;83.89;101283.31;4971000;28;20092;-70
2021/07/03 04:51:14;;;;;;;11.17;7.23;;;;;;;14.30;85.10;101273.56;4972606;28;20023;-70
2021/07/03 04:53:39;;;;;;;9.27;6.60;;;;;;;14.36;84.11;101275.56;4971602;28;20080;-70
2021/07/03 04:56:06;;;;;;;;;;;;;;;14.45;83.06;101272.84;4971700;28;20121;-70
2021/07/03 04:58:31;;;;;;;;;;;;;;;14.51;83.05;101266.75;4971895;28;20353;-70
2021/07/03 05:00:57;;;;;;;13.27;7.07;;;;;;;14.45;82.08;101270.19;4971451;28;19933;-70
2021/07/03 05:03:22;;;;;;;13.17;6.73;;;;;;;14.46;83.16;101269.97;4972460;28;20053;-70
2021/07/03 05:05:47;;;;;;;13.13;6.17;;;;;;;14.54;82.66;101277.22;4972387;28;20039;-70
2021/07/03 05:08:13;;;;;;;12.63;6.73;;;;;;;14.56;82.21;101277.84;4972147;28;20039;-70
2021/07/03 05:10:38;;;;;;;13.63;6.60;;;;;;;14.62;82.17;101281.69;4955382;28;20479;-70
2021/07/03 05:13:03;;;;;;;11.53;6.13;;;;;;;14.66;81.73;101275.81;4972189;28;20483;-71
2021/07/03 05:15:28;;;;;;;15.83;7.17;;;;;;;14.62;81.11;101277.16;4972283;28;20456;-70
2021/07/03 05:17:54;;;;;;;10.80;6.53;;;;;;;14.74;80.33;101285.66;4954883;28;20479;-70
2021/07/03 05:20:19;;;;;;;8.97;6.23;;;;;;;14.84;80.80;101277.38;4972133;28;20038;-70
2021/07/03 05:22:45;;;;;;;12.07;7.00;;;;;;;14.74;80.58;101280.28;4971218;28;20341;-70
2021/07/03 05:25:11;;;;;;;10.10;6.77;;;;;;;14.72;81.77;101285.81;4971167;28;20050;-70
2021/07/03 05:27:37;;;;;;;9.07;5.85;;;;;;;14.85;81.43;101287.13;4970680;28;20053;-70
2021/07/03 05:30:04;;;;;;;14.27;6.97;;;;;;;14.79;80.42;101288.66;4954996;28;20047;-70
2021/07/03 05:32:29;;;;;;;21.25;6.97;;;;;;;14.82;81.07;101287.44;4970855;28;20050;-70
2021/07/03 05:34:54;;;;;;;10.13;6.27;;;;;;;14.74;81.25;101286.50;4971016;28;20035;-70
2021/07/03 05:37:20;;;;;;;12.50;7.67;;;;;;;14.74;81.81;101289.19;4970737;28;20107;-70
2021/07/03 05:39:45;;;;;;;12.70;6.77;;;;;;;14.76;81.31;101299.75;4971228;28;20047;-70
2021/07/03 05:42:10;;;;;;;14.37;6.03;;;;;;;14.82;81.02;101290.13;4953177;28;20034;-71
2021/07/03 05:44:36;;;;;;;9.20;6.03;;;;;;;14.87;80.39;101290.47;4953689;28;20035;-70
2021/07/03 05:47:01;;;;;;;9.83;5.30;;;;;;;15.03;79.40;101302.94;4970237;28;20042;-70
2021/07/03 05:49:26;;;;;;;12.30;6.60;;;;;;;14.86;80.25;101302.22;4971402;28;20042;-70
2021/07/03 05:51:52;;;;;;;9.43;6.50;;;;;;;14.69;80.26;101290.72;4954431;28;20366;-70
2021/07/03 05:54:17;;;;;;;10.10;6.50;;;;;;;14.81;80.49;101301.91;4954412;28;20050;-70
2021/07/03 05:56:43;;;;;;;8.13;5.67;;;;;;;14.78;79.76;101289.69;4971238;28;20045;-70
2021/07/03 05:59:08;;;;;;;10.87;6.57;;;;;;;14.71;79.98;101304.84;4953522;28;20043;-70
2021/07/03 06:01:34;;;;;;;12.23;6.67;;;;;;;14.62;80.51;101300.50;4970621;28;20049;-70
2021/07/03 06:03:59;;;;;;;10.70;5.93;;;;;;;14.66;80.46;101310.72;4971470;28;20043;-70
2021/07/03 06:06:25;;;;;;;10.83;6.67;;;;;;;14.83;80.92;101306.09;4970379;28;20031;-70
2021/07/03 06:08:50;;;;;;;10.13;6.40;;;;;;;14.92;80.36;101309.59;4970652;28;20031;-70
2021/07/03 06:11:16;;;;;;;10.13;5.30;;;;;;;14.91;80.63;101306.06;4970362;28;20373;-70
2021/07/03 06:13:42;;;;;;;11.13;6.07;;;;;;;14.76;79.98;101311.34;4970493;28;20368;-70
2021/07/03 06:16:08;;;;;;;11.52;5.68;;;;;;;14.80;79.70;101310.97;4970186;28;20112;-70
2021/07/03 06:18:33;;;;;;;11.40;7.30;;;;;;;14.76;80.80;101308.66;4971408;28;20035;-70
2021/07/03 06:20:59;;;;;;;10.93;6.53;;;;;;;14.73;80.63;101306.31;4970285;28;20306;-71
2021/07/03 06:23:26;;;;;;;9.13;5.68;;;;;;;14.80;80.60;101310.97;4971325;28;20042;-70
2021/07/03 06:25:52;;;;;;;8.77;5.60;;;;;;;14.78;80.05;101293.19;4969850;28;20088;-70
2021/07/03 06:28:17;;;;;;;12.67;5.57;;;;;;;14.95;80.21;101293.94;4971143;28;20039;-70
2021/07/03 06:30:43;;;;;;;11.57;6.63;;;;;;;15.06;79.85;101295.38;4970177;28;20597;-70
2021/07/03 06:33:08;;;;;;;12.10;5.70;;;;;;;15.26;78.62;101294.88;4971095;28;20081;-71
2021/07/03 06:35:34;;;;;;;10.07;5.67;;;;;;;15.50;78.09;101294.72;4971053;28;20042;-70
2021/07/03 06:37:59;;;;;;;8.83;5.83;;;;;;;15.81;76.93;101293.78;4970698;28;20053;-71
2021/07/03 06:40:25;;;;;;;8.20;5.97;;;;;;;15.79;75.76;101293.13;4970767;28;20038;-71
2021/07/03 06:42:50;;;;;;;8.83;4.63;;;;;;;15.83;76.21;101289.06;4969930;28;20046;-71
2021/07/03 06:45:17;;;;;;;11.63;5.77;;;;;;;16.06;75.50;101290.81;4970927;28;20038;-70
2021/07/03 06:47:42;;;;;;;11.73;5.60;;;;;;;16.03;75.50;101292.84;4970700;28;20038;-71
2021/07/03 06:50:09;;;;;;;12.53;5.97;;;;;;;16.14;75.20;101294.25;4970867;28;20702;-71
2021/07/03 06:52:35;;;;;;;6.43;4.50;;;;;;;16.23;74.87;101292.31;4953811;28;20042;-71
2021/07/03 06:55:00;;;;;;;;;;;;;;;16.22;74.36;101296.88;4970122;28;20035;-71
2021/07/03 06:57:25;;;;;;;8.47;5.43;;;;;;;16.21;74.08;101289.78;4970498;28;20351;-71
2021/07/03 06:59:51;;;;;;;7.90;5.23;;;;;;;16.08;74.48;101288.78;4953806;28;20368;-71
2021/07/03 07:02:18;;;;;;;11.37;5.60;;;;;;;16.09;75.78;101285.91;4970582;28;20047;-71
2021/07/03 07:04:43;;;;;;;7.82;5.55;;;;;;;16.25;74.41;101285.72;4970642;28;20055;-71
2021/07/03 07:07:09;;;;;;;11.80;4.55;;;;;;;16.38;75.49;101295.81;4970210;28;20042;-70
2021/07/03 07:09:34;;;;;;;8.13;5.23;;;;;;;16.47;74.46;101293.88;4969609;28;20035;-71
2021/07/03 07:12:00;;;;;;;9.90;5.03;;;;;;;16.30;73.40;101287.03;4970420;28;20027;-71
2021/07/03 07:14:25;;;;;;;6.95;4.25;;;;;;;16.14;73.11;101283.47;4969650;28;20057;-71
2021/07/03 07:16:51;;;;;;;6.07;4.47;;;;;;;16.23;73.72;101292.31;4970240;28;20039;-71
2021/07/03 07:19:16;;;;;;;6.20;4.33;;;;;;;15.98;74.92;101289.88;4970424;28;20034;-71
2021/07/03 07:21:42;;;;;;;4.53;3.23;;;;;;;16.07;74.70;101293.34;4970327;28;20058;-71
2021/07/03 07:24:07;;;;;;;5.80;3.57;;;;;;;16.24;74.62;101294.81;4970241;28;20456;-71
2021/07/03 07:26:33;;;;;;;7.83;4.50;;;;;;;16.15;73.69;101292.41;4970058;28;20042;-71
2021/07/03 07:28:59;;;;;;;5.13;3.72;;;;;;;16.34;73.68;101294.53;4970256;28;20375;-71
2021/07/03 07:31:24;;;;;;;5.50;3.90;;;;;;;16.16;73.20;101292.22;4969163;28;20041;-71
2021/07/03 07:33:50;;;;;;;5.90;3.30;;;;;;;16.41;72.65;101308.06;4970248;28;20631;-71
2021/07/03 07:36:15;;;;;;;3.97;3.03;;;;;;;16.58;72.22;101306.88;4969670;28;20041;-71
2021/07/03 07:38:41;;;;;;;8.97;3.07;;;;;;;16.32;70.68;101301.13;4968528;28;20046;-71
2021/07/03 07:41:07;;;;;;;4.30;3.10;;;;;;;16.35;72.62;101303.47;4967664;28;20034;-71
2021/07/03 07:43:33;;;;;;;5.45;3.13;;;;;;;16.45;71.30;101291.34;4968024;28;20092;-71
2021/07/03 07:45:58;;;;;;;7.68;3.28;;;;;;;16.39;71.70;101302.06;4967248;28;20070;-71
2021/07/03 07:48:27;;;;;;;4.10;2.53;;;;;;;16.48;71.85;101287.44;4967526;28;20038;-71
2021/07/03 07:50:53;;;;;;;4.40;2.63;;;;;;;16.53;72.40;101294.97;4967812;28;20042;-71
2021/07/03 07:53:18;;;;;;;5.63;3.22;;;;;;;16.65;72.41;101299.69;4968239;28;20039;-71
2021/07/03 07:55:44;;;;;;;4.20;3.00;;;;;;;16.61;70.46;101290.31;4970029;28;20030;-71
2021/07/03 07:58:09;;;;;;;4.07;2.57;;;;;;;16.53;71.32;101293.13;4969726;28;20039;-71
2021/07/03 08:00:34;;;;;;;4.63;3.07;;;;;;;16.67;70.53;101289.56;4968959;28;20294;-71
2021/07/03 08:03:00;;;;;;;5.77;3.00;;;;;;;16.96;70.85;101289.69;4952910;28;20061;-71
2021/07/03 08:05:25;;;;;;;4.47;3.07;;;;;;;16.98;69.03;101291.19;4969032;28;20035;-71
2021/07/03 08:07:52;;;;;;;3.43;2.90;;;;;;;16.91;70.54;101284.03;4969362;28;20741;-71
2021/07/03 08:10:18;;;;;;;5.47;3.10;;;;;;;17.12;69.08;101283.22;4969786;28;20049;-71
2021/07/03 08:12:43;;;;;;;6.00;3.65;;;;;;;17.12;70.33;101269.75;4969768;28;20383;-71
2021/07/03 08:15:10;;;;;;;4.95;3.40;;;;;;;17.12;70.01;101265.16;4968749;28;20134;-71
2021/07/03 08:17:42;;;;;;;5.38;3.28;;;;;;;17.30;70.77;101273.66;4952355;28;20716;-71
2021/07/03 08:20:09;;;;;;;3.92;2.95;;;;;;;17.13;69.54;101279.50;4952584;28;20391;-71
2021/07/03 08:22:34;;;;;;;4.40;3.55;;;;;;;17.10;70.64;101283.41;4970449;28;20516;-71
2021/07/03 08:25:00;;;;;;;6.63;3.17;;;;;;;16.85;73.33;101283.75;4972145;28;20133;-71
2021/07/03 08:27:25;;;;;;;6.87;3.00;;;;;;;17.16;71.65;101285.34;4955706;28;20081;-71
2021/07/03 08:29:50;;;;;;;4.47;3.27;;;;;;;17.00;71.43;101269.41;4973108;28;20074;-71
2021/07/03 08:32:17;;;;;;;4.93;3.50;;;;;;;16.81;72.26;101273.53;4972097;28;20031;-71
2021/07/03 08:34:42;;;;;;;5.10;3.25;;;;;;;16.87;70.99;101278.19;4972998;28;20030;-71
2021/07/03 08:37:07;;;;;;;3.13;2.80;;;;;;;17.08;71.63;101267.41;4971497;28;20042;-71
2021/07/03 08:39:33;;;;;;;8.07;2.93;;;;;;;17.06;70.52;101271.31;4955871;28;20053;-71
2021/07/03 08:41:58;;;;;;;4.33;3.43;;;;;;;17.33;70.05;101261.63;4972727;28;20119;-71
2021/07/03 08:44:23;;;;;;;3.43;2.70;;;;;;;17.97;68.86;101263.34;4955771;28;20043;-71
2021/07/03 08:46:49;;;;;;;5.33;3.07;;;;;;;18.22;67.02;101257.47;4955437;28;20122;-71
2021/07/03 08:49:16;;;;;;;3.30;2.73;;;;;;;18.42;66.33;101258.38;4971805;28;20046;-71
2021/07/03 08:51:45;;;;;;;4.07;3.15;;;;;;;18.16;66.78;101260.97;4971528;28;20034;-71
2021/07/03 08:54:10;;;;;;;4.47;2.90;;;;;;;17.90;67.19;101260.59;4955596;28;20790;-71
2021/07/03 08:56:35;;;;;;;5.10;3.60;;;;;;;18.18;68.49;101262.44;4955344;28;20050;-71
2021/07/03 08:59:01;;;;;;;3.87;3.00;;;;;;;18.33;67.46;101267.69;4972585;28;20046;-71
2021/07/03 09:01:26;;;;;;;6.97;3.30;;;;;;;18.19;66.56;101252.44;4971527;28;20045;-72
2021/07/03 09:03:56;;;;;;;5.63;3.57;;;;;;;17.95;67.90;101257.31;4972549;28;20038;-71
2021/07/03 09:06:30;;;;;;;3.45;2.78;;;;;;;18.53;68.45;101251.56;4971014;28;20068;-71
2021/07/03 09:08:56;;;;;;;4.43;3.30;;;;;;;18.76;63.65;101256.63;4972400;28;20046;-71
2021/07/03 09:11:21;;;;;;;6.05;2.58;;;;;;;18.46;65.67;101254.25;4955449;28;20084;-71
2021/07/03 09:14:00;;;;;;;3.73;3.03;;;;;;;19.04;64.09;101247.56;4971462;28;20039;-71
2021/07/03 09:16:35;;;;;;;4.47;2.45;;;;;;;18.75;64.52;101252.25;4972114;28;20062;-71
2021/07/03 09:19:01;;;;;;;9.25;3.22;;;;;;;18.71;65.17;101259.13;4971343;28;20582;-71
2021/07/03 09:21:28;;;;;;;6.50;2.85;;;;;;;18.67;66.72;101249.75;4972048;28;20035;-72
2021/07/03 09:23:53;;;;;;;;;;;;;;;18.34;64.43;101269.38;4971684;28;20045;-71
2021/07/03 09:26:18;;;;;;;;;;;;;;;18.80;66.45;101260.63;4955252;28;19914;-71
2021/07/03 09:28:45;;;;;;;3.33;2.63;;;;;;;18.94;64.05;101259.63;4972064;28;19921;-71
2021/07/03 09:31:17;;;;;;;3.80;2.70;;;;;;;19.69;62.98;101251.34;4971012;28;20113;-71
2021/07/03 09:33:51;;;;;;;5.05;3.33;;;;;;;19.68;61.94;101249.66;4970918;28;20360;-71
2021/07/03 09:36:25;;;;;;;3.05;2.42;;;;;;;19.76;60.42;101245.88;4971663;28;20039;-71
2021/07/03 09:38:52;;;;;;;4.15;2.80;;;;;;;19.78;60.63;101244.66;4971178;28;20526;-72
2021/07/03 09:41:37;;;;;;;4.88;2.63;;;;;;;19.48;62.61;101248.81;4970898;28;20130;-72
2021/07/03 09:44:07;;;;;;;4.95;2.50;;;;;;;19.53;60.67;101246.34;4954947;28;20034;-72
2021/07/03 09:46:51;;;;;;;4.85;2.50;;;;;;;19.73;60.19;101249.84;4971457;28;20152;-71
2021/07/03 09:49:22;;;;;;;3.95;2.17;;;;;;;20.23;59.16;101244.72;4970964;28;20115;-72
2021/07/03 09:51:53;;;;;;;2.67;2.10;;;;;;;21.41;58.02;101248.03;4971582;28;20049;-72
2021/07/03 09:54:21;;;;;;;3.90;2.47;;;;;;;20.79;57.27;101242.38;4954585;28;20031;-72
2021/07/03 09:56:48;;;;;;;6.82;2.40;;;;;;;19.82;61.41;101248.59;4971122;28;20594;-72
2021/07/03 09:59:14;;;;;;;3.80;2.60;;;;;;;20.30;60.60;101252.84;4971594;28;20039;-72
2021/07/03 10:01:42;;;;;;;5.13;3.03;;;;;;;21.03;58.39;101241.63;4971487;28;20087;-72
2021/07/03 10:04:08;;;;;;;3.08;2.75;;;;;;;21.34;55.19;101248.06;4971619;28;20043;-72
2021/07/03 10:06:36;;;;;;;;;;;;;;;21.91;55.02;101246.09;4970363;28;20027;-72
2021/07/03 10:09:05;;;;;;;4.72;2.03;;;;;;;21.97;52.98;101246.25;4970629;28;19914;-72
2021/07/03 10:11:37;;;;;;;5.95;2.05;;;;;;;21.84;52.65;101239.88;4970549;28;20046;-72
2021/07/03 10:14:04;;;;;;;4.07;1.65;;;;;;;23.43;49.65;101241.50;4971661;28;20050;-72
2021/07/03 10:16:30;;;;;;;3.17;1.98;;;;;;;23.18;50.50;101239.00;4970223;28;20049;-72
2021/07/03 10:19:13;;;;;;;4.25;1.92;;;;;;;22.94;50.70;101251.69;4971395;28;20043;-72
2021/07/03 10:21:39;;;;;;;1.92;1.80;;;;;;;22.92;51.75;101248.38;4970206;28;20046;-73
2021/07/03 10:24:15;;;;;;;1.70;1.60;;;;;;;22.07;52.21;101244.66;4954389;28;20305;-73
2021/07/03 10:26:41;;;;;;;3.13;2.00;;;;;;;22.40;55.07;101245.34;4970127;28;20043;-73
2021/07/03 10:29:21;;;;;;;3.10;2.10;;;;;;;21.60;54.46;101244.31;4971255;28;20418;-73
2021/07/03 10:31:48;;;;;;;1.95;1.83;;;;;;;21.10;55.36;101248.91;4970008;28;20062;-72
2021/07/03 10:34:13;;;;;;;2.60;2.10;;;;;;;21.29;56.04;101250.63;4971084;28;20111;-72
2021/07/03 10:36:40;;;;;;;2.50;2.00;;;;;;;21.12;57.38;101249.47;4969818;28;20451;-72
2021/07/03 10:39:05;;;;;;;;;;;;;;;20.96;55.62;101235.41;4970550;28;20074;-72
2021/07/03 10:41:32;;;;;;;2.05;1.75;;;;;;;21.15;55.63;101249.06;4970883;28;19976;-72
2021/07/03 10:44:07;;;;;;;4.75;2.88;;;;;;;21.80;53.25;101238.69;4970800;28;20073;-72
2021/07/03 10:46:37;;;;;;;5.57;1.92;;;;;;;23.13;51.94;101239.72;4970087;28;20034;-73
2021/07/03 10:49:06;;;;;;;7.57;2.10;;;;;;;22.63;52.58;101245.44;4970764;28;20050;-73
2021/07/03 10:51:36;;;;;;;8.07;2.88;;;;;;;22.15;55.25;101246.25;4969643;28;20031;-72
2021/07/03 10:54:27;;;;;;;2.42;1.85;;;;;;;22.52;52.46;101243.50;4953871;28;20039;-72
2021/07/03 10:57:12;;;;;;;2.22;1.77;;;;;;;22.56;51.57;101241.97;4970224;28;20034;-73
2021/07/03 10:59:40;;;;;;;3.08;1.67;;;;;;;21.63;54.51;101234.88;4969705;28;20039;-72
2021/07/03 11:02:11;;;;;;;2.28;1.50;;;;;;;21.12;56.52;101238.63;4969566;28;20114;-72
2021/07/03 11:04:53;;;;;;;2.92;1.83;;;;;;;21.33;56.14;101245.56;4953242;28;20038;-72
2021/07/03 11:07:29;;;;;;;3.05;1.50;;;;;;;21.07;56.73;101242.84;4969277;28;20345;-73
2021/07/03 11:10:07;;;;;;;1.60;1.50;;;;;;;21.76;55.00;101244.78;4970379;28;20114;-72
2021/07/03 11:12:43;;;;;;;2.45;1.63;;;;;;;21.85;54.95;101230.69;4970502;28;20053;-72
2021/07/03 11:15:09;;;;;;;2.72;1.55;;;;;;;21.80;52.06;101229.72;4969536;28;20043;-72
2021/07/03 11:17:34;;;;;;;1.65;1.40;;;;;;;21.81;54.59;101237.63;4969887;28;20114;-72
2021/07/03 11:19:59;;;;;;;3.80;1.50;;;;;;;22.11;55.02;101237.69;4970690;28;20491;-72
2021/07/03 11:22:25;;;;;;;2.90;1.40;;;;;;;21.06;56.31;101230.31;4970081;28;20039;-72